createdAt,value
2018-09-28T00:00:33.562Z,996.93
2018-09-28T00:01:33.552Z,996.96
2018-09-28T00:02:33.552Z,996.94
2018-09-28T00:03:33.547Z,997.01
2018-09-28T00:04:33.540Z,996.94
2018-09-28T00:05:33.551Z,996.93
2018-09-28T00:06:33.540Z,996.97
2018-09-28T00:07:33.544Z,996.97
2018-09-28T00:08:33.539Z,996.89
2018-09-28T00:09:33.524Z,996.97
2018-09-28T00:10:33.520Z,996.93
2018-09-28T00:11:33.517Z,996.91
2018-09-28T00:12:33.511Z,996.95
2018-09-28T00:13:33.506Z,996.86
2018-09-28T00:14:33.509Z,996.86
2018-09-28T00:15:33.507Z,996.89
2018-09-28T00:16:33.495Z,996.89
2018-09-28T00:17:33.493Z,996.89
2018-09-28T00:18:33.493Z,996.93
2018-09-28T00:19:33.500Z,996.87
2018-09-28T00:20:33.496Z,996.95
2018-09-28T00:21:33.498Z,996.9
2018-09-28T00:22:33.473Z,996.9
2018-09-28T00:23:33.467Z,996.89
2018-09-28T00:24:33.464Z,996.87
2018-09-28T00:25:33.457Z,996.89
2018-09-28T00:26:33.471Z,996.9
2018-09-28T00:27:33.455Z,996.93
2018-09-28T00:28:33.463Z,996.84
2018-09-28T00:29:33.442Z,996.84
2018-09-28T00:30:33.437Z,996.78
2018-09-28T00:31:33.434Z,996.82
2018-09-28T00:32:33.431Z,996.75
2018-09-28T00:33:33.426Z,996.81
2018-09-28T00:34:33.422Z,996.71
2018-09-28T00:35:33.418Z,996.76
2018-09-28T00:36:33.413Z,996.75
2018-09-28T00:37:33.408Z,996.74
2018-09-28T00:38:33.406Z,996.7
2018-09-28T00:39:33.402Z,996.64
2018-09-28T00:40:33.393Z,996.69
2018-09-28T00:41:33.396Z,996.66
2018-09-28T00:42:33.392Z,996.68
2018-09-28T00:43:33.379Z,996.64
2018-09-28T00:44:33.378Z,996.67
2018-09-28T00:45:33.374Z,996.67
2018-09-28T00:46:33.365Z,996.67
2018-09-28T00:47:33.362Z,996.66
2018-09-28T00:48:33.363Z,996.64
2018-09-28T00:49:33.379Z,996.64
2018-09-28T00:50:33.375Z,996.6
2018-09-28T00:51:33.346Z,996.6
2018-09-28T00:52:33.341Z,996.55
2018-09-28T00:53:33.336Z,996.54
2018-09-28T00:54:33.330Z,996.56
2018-09-28T00:55:33.328Z,996.5
2018-09-28T00:56:33.330Z,996.5
2018-09-28T00:57:33.318Z,996.53
2018-09-28T00:58:33.318Z,996.52
2018-09-28T00:59:33.317Z,996.47
2018-09-28T01:00:33.311Z,996.45
2018-09-28T01:01:33.314Z,996.47
2018-09-28T01:02:33.295Z,996.45
2018-09-28T01:03:33.294Z,996.46
2018-09-28T01:04:33.289Z,996.45
2018-09-28T01:05:33.286Z,996.45
2018-09-28T01:06:33.282Z,996.47
2018-09-28T01:07:33.277Z,996.38
2018-09-28T01:08:33.273Z,996.4
2018-09-28T01:09:33.268Z,996.39
2018-09-28T01:10:33.274Z,996.4
2018-09-28T01:11:33.261Z,996.42
2018-09-28T01:12:33.269Z,996.49
2018-09-28T01:13:33.254Z,996.4
2018-09-28T01:14:33.251Z,996.42
2018-09-28T01:15:33.244Z,996.42
2018-09-28T01:16:33.238Z,996.44
2018-09-28T01:17:33.234Z,996.4
2018-09-28T01:18:33.242Z,996.46
2018-09-28T01:19:33.223Z,996.39
2018-09-28T01:20:33.222Z,996.4
2018-09-28T01:21:33.221Z,996.4
2018-09-28T01:22:33.214Z,996.4
2018-09-28T01:23:33.207Z,996.41
2018-09-28T01:24:33.208Z,996.4
2018-09-28T01:25:33.206Z,996.38
2018-09-28T01:26:33.205Z,996.37
2018-09-28T01:27:33.199Z,996.38
2018-09-28T01:28:33.184Z,996.35
2018-09-28T01:29:33.180Z,996.39
2018-09-28T01:30:33.181Z,996.32
2018-09-28T01:31:33.182Z,996.34
2018-09-28T01:32:33.179Z,996.3
2018-09-28T01:33:33.165Z,996.32
2018-09-28T01:34:33.163Z,996.32
2018-09-28T01:35:33.169Z,996.29
2018-09-28T01:36:33.157Z,996.27
2018-09-28T01:37:33.145Z,996.29
2018-09-28T01:38:33.145Z,996.27
2018-09-28T01:39:33.138Z,996.27
2018-09-28T01:40:33.135Z,996.22
2018-09-28T01:41:33.133Z,996.24
2018-09-28T01:42:33.134Z,996.21
2018-09-28T01:43:33.129Z,996.23
2018-09-28T01:44:33.124Z,996.21
2018-09-28T01:45:33.135Z,996.19
2018-09-28T01:46:33.121Z,996.23
2018-09-28T01:47:33.116Z,996.22
2018-09-28T01:48:33.117Z,996.25
2018-09-28T01:49:33.119Z,996.24
2018-09-28T01:50:33.099Z,996.26
2018-09-28T01:51:33.097Z,996.18
2018-09-28T01:52:33.092Z,996.17
2018-09-28T01:53:33.099Z,996.16
2018-09-28T01:54:33.081Z,996.13
2018-09-28T01:55:33.084Z,996.15
2018-09-28T01:56:33.082Z,996.13
2018-09-28T01:57:33.082Z,996.08
2018-09-28T01:58:33.076Z,996.11
2018-09-28T01:59:33.059Z,996.07
2018-09-28T02:00:33.062Z,996.08
2018-09-28T02:01:33.066Z,996.07
2018-09-28T02:02:33.062Z,996.07
2018-09-28T02:03:33.044Z,996.08
2018-09-28T02:04:33.048Z,996.04
2018-09-28T02:05:33.041Z,996.05
2018-09-28T02:06:33.042Z,996.06
2018-09-28T02:07:33.034Z,996.03
2018-09-28T02:08:33.029Z,996.02
2018-09-28T02:09:33.030Z,996.01
2018-09-28T02:10:33.028Z,996.01
2018-09-28T02:11:33.014Z,996
2018-09-28T02:12:33.150Z,996.02
2018-09-28T02:13:33.007Z,996.01
2018-09-28T02:14:33.156Z,996.02
2018-09-28T02:15:33.007Z,996.02
2018-09-28T02:16:33.003Z,996.01
2018-09-28T02:17:33.001Z,995.95
2018-09-28T02:18:32.985Z,995.98
2018-09-28T02:19:32.991Z,995.97
2018-09-28T02:20:32.981Z,995.97
2018-09-28T02:21:32.978Z,995.96
2018-09-28T02:22:32.973Z,995.94
2018-09-28T02:23:32.973Z,995.92
2018-09-28T02:24:32.966Z,995.9
2018-09-28T02:25:32.963Z,995.93
2018-09-28T02:26:32.959Z,995.96
2018-09-28T02:27:32.955Z,995.95
2018-09-28T02:28:32.971Z,995.93
2018-09-28T02:29:32.948Z,995.97
2018-09-28T02:30:32.979Z,995.9
2018-09-28T02:31:32.940Z,995.89
2018-09-28T02:32:32.936Z,995.89
2018-09-28T02:33:32.985Z,995.89
2018-09-28T02:34:32.929Z,995.88
2018-09-28T02:35:32.925Z,995.86
2018-09-28T02:36:32.925Z,995.89
2018-09-28T02:37:32.962Z,995.87
2018-09-28T02:38:32.921Z,995.88
2018-09-28T02:39:32.911Z,995.93
2018-09-28T02:40:32.908Z,995.86
2018-09-28T02:41:32.909Z,995.85
2018-09-28T02:42:32.902Z,995.81
2018-09-28T02:43:32.898Z,995.81
2018-09-28T02:44:32.893Z,995.82
2018-09-28T02:45:32.888Z,995.82
2018-09-28T02:46:32.884Z,995.8
2018-09-28T02:47:32.881Z,995.85
2018-09-28T02:48:32.880Z,995.78
2018-09-28T02:49:32.871Z,995.8
2018-09-28T02:50:32.869Z,995.8
2018-09-28T02:51:32.864Z,995.77
2018-09-28T02:52:32.879Z,995.76
2018-09-28T02:53:32.888Z,995.8
2018-09-28T02:54:32.853Z,995.79
2018-09-28T02:55:32.852Z,995.78
2018-09-28T02:56:32.848Z,995.77
2018-09-28T02:57:32.842Z,995.76
2018-09-28T02:58:32.839Z,995.79
2018-09-28T02:59:32.833Z,995.75
2018-09-28T03:00:32.830Z,995.76
2018-09-28T03:01:32.835Z,995.75
2018-09-28T03:02:32.822Z,995.7
2018-09-28T03:03:32.815Z,995.69
2018-09-28T03:04:32.815Z,995.68
2018-09-28T03:05:32.813Z,995.73
2018-09-28T03:06:32.807Z,995.67
2018-09-28T03:07:32.812Z,995.68
2018-09-28T03:08:32.799Z,995.67
2018-09-28T03:09:32.795Z,995.67
2018-09-28T03:10:32.793Z,995.63
2018-09-28T03:11:32.786Z,995.66
2018-09-28T03:12:32.787Z,995.63
2018-09-28T03:13:32.789Z,995.64
2018-09-28T03:14:32.778Z,995.67
2018-09-28T03:15:32.771Z,995.62
2018-09-28T03:16:32.784Z,995.68
2018-09-28T03:17:32.767Z,995.63
2018-09-28T03:18:32.759Z,995.72
2018-09-28T03:19:32.760Z,995.69
2018-09-28T03:20:32.753Z,995.72
2018-09-28T03:21:32.757Z,995.73
2018-09-28T03:22:32.747Z,995.7
2018-09-28T03:23:32.742Z,995.7
2018-09-28T03:24:32.737Z,995.69
2018-09-28T03:25:32.736Z,995.75
2018-09-28T03:26:32.729Z,995.75
2018-09-28T03:27:32.728Z,995.74
2018-09-28T03:28:32.720Z,995.72
2018-09-28T03:29:32.716Z,995.72
2018-09-28T03:30:32.713Z,995.71
2018-09-28T03:31:32.710Z,995.7
2018-09-28T03:32:32.709Z,995.68
2018-09-28T03:33:32.704Z,995.68
2018-09-28T03:34:32.701Z,995.7
2018-09-28T03:35:32.695Z,995.72
2018-09-28T03:36:32.690Z,995.71
2018-09-28T03:37:32.686Z,995.72
2018-09-28T03:38:32.681Z,995.75
2018-09-28T03:39:32.678Z,995.73
2018-09-28T03:40:32.787Z,995.71
2018-09-28T03:41:32.668Z,995.73
2018-09-28T03:42:32.666Z,995.66
2018-09-28T03:43:32.667Z,995.71
2018-09-28T03:44:32.674Z,995.63
2018-09-28T03:45:32.659Z,995.69
2018-09-28T03:46:32.649Z,995.69
2018-09-28T03:47:32.649Z,995.66
2018-09-28T03:48:32.644Z,995.65
2018-09-28T03:49:32.637Z,995.68
2018-09-28T03:50:32.633Z,995.68
2018-09-28T03:51:32.629Z,995.65
2018-09-28T03:52:32.625Z,995.64
2018-09-28T03:53:32.619Z,995.66
2018-09-28T03:54:32.621Z,995.6
2018-09-28T03:55:32.611Z,995.66
2018-09-28T03:56:32.607Z,995.68
2018-09-28T03:57:32.602Z,995.61
2018-09-28T03:58:32.605Z,995.64
2018-09-28T03:59:32.592Z,995.67
2018-09-28T04:00:32.588Z,995.62
2018-09-28T04:01:32.598Z,995.64
2018-09-28T04:02:32.580Z,995.64
2018-09-28T04:03:32.577Z,995.6
2018-09-28T04:04:32.572Z,995.58
2018-09-28T04:05:32.566Z,995.62
2018-09-28T04:06:32.562Z,995.64
2018-09-28T04:07:32.555Z,995.64
2018-09-28T04:08:32.553Z,995.64
2018-09-28T04:09:32.549Z,995.63
2018-09-28T04:10:32.544Z,995.63
2018-09-28T04:11:32.590Z,995.62
2018-09-28T04:12:32.537Z,995.59
2018-09-28T04:13:32.539Z,995.59
2018-09-28T04:14:32.530Z,995.6
2018-09-28T04:15:32.526Z,995.63
2018-09-28T04:16:32.521Z,995.62
2018-09-28T04:17:32.526Z,995.63
2018-09-28T04:18:32.521Z,995.61
2018-09-28T04:19:32.519Z,995.61
2018-09-28T04:20:32.503Z,995.66
2018-09-28T04:21:32.505Z,995.61
2018-09-28T04:22:32.491Z,995.61
2018-09-28T04:23:32.484Z,995.65
2018-09-28T04:24:32.512Z,995.65
2018-09-28T04:25:32.491Z,995.66
2018-09-28T04:26:32.479Z,995.68
2018-09-28T04:27:32.467Z,995.64
2018-09-28T04:28:32.471Z,995.66
2018-09-28T04:29:32.474Z,995.64
2018-09-28T04:30:32.462Z,995.6
2018-09-28T04:31:32.455Z,995.63
2018-09-28T04:32:32.476Z,995.64
2018-09-28T04:33:32.448Z,995.63
2018-09-28T04:34:32.431Z,995.64
2018-09-28T04:35:32.441Z,995.67
2018-09-28T04:36:32.425Z,995.64
2018-09-28T04:37:32.419Z,995.66
2018-09-28T04:38:32.413Z,995.67
2018-09-28T04:39:32.409Z,995.68
2018-09-28T04:40:32.403Z,995.73
2018-09-28T04:41:32.400Z,995.76
2018-09-28T04:42:32.393Z,995.71
2018-09-28T04:43:32.396Z,995.72
2018-09-28T04:44:32.382Z,995.76
2018-09-28T04:45:32.389Z,995.79
2018-09-28T04:46:32.371Z,995.78
2018-09-28T04:47:32.366Z,995.83
2018-09-28T04:48:32.363Z,995.78
2018-09-28T04:49:32.357Z,995.8
2018-09-28T04:50:32.353Z,995.83
2018-09-28T04:51:32.345Z,995.81
2018-09-28T04:52:32.341Z,995.78
2018-09-28T04:53:32.339Z,995.81
2018-09-28T04:54:32.329Z,995.82
2018-09-28T04:55:32.323Z,995.82
2018-09-28T04:56:32.320Z,995.79
2018-09-28T04:57:32.315Z,995.9
2018-09-28T04:58:32.310Z,995.84
2018-09-28T04:59:32.339Z,995.84
2018-09-28T05:00:32.298Z,995.83
2018-09-28T05:01:32.297Z,995.82
2018-09-28T05:02:32.289Z,995.83
2018-09-28T05:03:32.283Z,995.82
2018-09-28T05:04:32.277Z,995.84
2018-09-28T05:05:32.292Z,995.81
2018-09-28T05:06:32.279Z,995.82
2018-09-28T05:07:32.272Z,995.9
2018-09-28T05:08:32.267Z,995.87
2018-09-28T05:09:32.251Z,995.88
2018-09-28T05:10:32.247Z,995.83
2018-09-28T05:11:32.242Z,995.88
2018-09-28T05:12:32.239Z,995.87
2018-09-28T05:13:32.233Z,995.85
2018-09-28T05:14:32.232Z,995.85
2018-09-28T05:15:32.230Z,995.82
2018-09-28T05:16:32.228Z,995.84
2018-09-28T05:17:32.232Z,995.85
2018-09-28T05:18:32.210Z,995.85
2018-09-28T05:19:32.263Z,995.86
2018-09-28T05:20:32.199Z,995.88
2018-09-28T05:21:32.196Z,995.89
2018-09-28T05:22:32.189Z,995.88
2018-09-28T05:23:32.185Z,995.92
2018-09-28T05:24:32.185Z,995.91
2018-09-28T05:25:32.180Z,995.92
2018-09-28T05:26:32.184Z,995.9
2018-09-28T05:27:32.171Z,995.93
2018-09-28T05:28:32.160Z,995.94
2018-09-28T05:29:32.159Z,995.98
2018-09-28T05:30:32.160Z,995.93
2018-09-28T05:31:32.262Z,995.95
2018-09-28T05:32:32.269Z,995.94
2018-09-28T05:33:32.137Z,995.95
2018-09-28T05:34:32.136Z,995.93
2018-09-28T05:35:32.129Z,995.93
2018-09-28T05:36:32.127Z,995.91
2018-09-28T05:37:32.118Z,995.94
2018-09-28T05:38:32.115Z,995.93
2018-09-28T05:39:32.159Z,995.87
2018-09-28T05:40:32.105Z,995.93
2018-09-28T05:41:32.106Z,995.93
2018-09-28T05:42:32.101Z,995.93
2018-09-28T05:43:32.097Z,995.93
2018-09-28T05:44:32.092Z,995.91
2018-09-28T05:45:32.084Z,995.95
2018-09-28T05:46:32.078Z,995.99
2018-09-28T05:47:32.080Z,995.96
2018-09-28T05:48:32.074Z,996.01
2018-09-28T05:49:32.068Z,996.02
2018-09-28T05:50:32.060Z,996.01
2018-09-28T05:51:32.134Z,996.01
2018-09-28T05:52:32.056Z,996.02
2018-09-28T05:53:32.048Z,995.99
2018-09-28T05:54:32.058Z,996
2018-09-28T05:55:32.043Z,996.08
2018-09-28T05:56:32.038Z,996.03
2018-09-28T05:57:32.037Z,996.06
2018-09-28T05:58:32.122Z,996.06
2018-09-28T05:59:32.032Z,996.04
2018-09-28T06:00:32.022Z,996.04
2018-09-28T06:01:32.031Z,996.08
2018-09-28T06:02:32.022Z,996.04
2018-09-28T06:03:32.008Z,996.08
2018-09-28T06:04:32.000Z,996.12
2018-09-28T06:05:32.055Z,996.16
2018-09-28T06:06:31.997Z,996.18
2018-09-28T06:07:31.986Z,996.17
2018-09-28T06:08:31.987Z,996.16
2018-09-28T06:09:31.985Z,996.21
2018-09-28T06:10:31.974Z,996.21
2018-09-28T06:11:31.969Z,996.18
2018-09-28T06:12:31.968Z,996.19
2018-09-28T06:13:31.961Z,996.25
2018-09-28T06:14:31.960Z,996.24
2018-09-28T06:15:31.954Z,996.2
2018-09-28T06:16:31.953Z,996.23
2018-09-28T06:17:31.947Z,996.21
2018-09-28T06:18:32.016Z,996.27
2018-09-28T06:19:31.942Z,996.28
2018-09-28T06:20:31.932Z,996.28
2018-09-28T06:21:31.929Z,996.25
2018-09-28T06:22:31.922Z,996.22
2018-09-28T06:23:31.928Z,996.28
2018-09-28T06:24:31.914Z,996.26
2018-09-28T06:25:31.916Z,996.27
2018-09-28T06:26:31.906Z,996.26
2018-09-28T06:27:31.903Z,996.25
2018-09-28T06:28:31.906Z,996.22
2018-09-28T06:29:31.897Z,996.2
2018-09-28T06:30:31.892Z,996.18
2018-09-28T06:31:31.892Z,996.15
2018-09-28T06:32:31.890Z,996.16
2018-09-28T06:33:31.881Z,996.19
2018-09-28T06:34:31.876Z,996.19
2018-09-28T06:35:31.920Z,996.19
2018-09-28T06:36:31.870Z,996.22
2018-09-28T06:37:31.865Z,996.23
2018-09-28T06:38:31.868Z,996.22
2018-09-28T06:39:31.861Z,996.24
2018-09-28T06:40:31.862Z,996.25
2018-09-28T06:41:31.861Z,996.26
2018-09-28T06:42:31.945Z,996.27
2018-09-28T06:43:31.852Z,996.28
2018-09-28T06:44:31.860Z,996.29
2018-09-28T06:45:31.842Z,996.34
2018-09-28T06:46:31.838Z,996.37
2018-09-28T06:47:31.838Z,996.36
2018-09-28T06:48:31.838Z,996.38
2018-09-28T06:49:31.836Z,996.41
2018-09-28T06:50:31.829Z,996.44
2018-09-28T06:51:31.827Z,996.38
2018-09-28T06:52:31.826Z,996.43
2018-09-28T06:53:31.829Z,996.39
2018-09-28T06:54:31.826Z,996.39
2018-09-28T06:55:31.810Z,996.44
2018-09-28T06:56:31.809Z,996.41
2018-09-28T06:57:31.815Z,996.46
2018-09-28T06:58:31.802Z,996.43
2018-09-28T06:59:31.804Z,996.48
2018-09-28T07:00:31.801Z,996.54
2018-09-28T07:01:31.794Z,996.52
2018-09-28T07:02:31.794Z,996.49
2018-09-28T07:03:31.790Z,996.5
2018-09-28T07:04:31.791Z,996.57
2018-09-28T07:05:31.786Z,996.46
2018-09-28T07:06:31.792Z,996.51
2018-09-28T07:07:31.784Z,996.53
2018-09-28T07:08:31.785Z,996.48
2018-09-28T07:09:31.820Z,996.52
2018-09-28T07:10:31.780Z,996.5
2018-09-28T07:11:31.782Z,996.5
2018-09-28T07:12:31.783Z,996.52
2018-09-28T07:13:31.789Z,996.56
2018-09-28T07:14:31.781Z,996.54
2018-09-28T07:15:31.785Z,996.58
2018-09-28T07:16:31.817Z,996.52
2018-09-28T07:17:31.788Z,996.54
2018-09-28T07:18:31.787Z,996.55
2018-09-28T07:19:31.789Z,996.52
2018-09-28T07:20:31.793Z,996.5
2018-09-28T07:21:31.796Z,996.55
2018-09-28T07:22:31.799Z,996.57
2018-09-28T07:23:31.801Z,996.55
2018-09-28T07:24:31.859Z,996.56
2018-09-28T07:25:31.831Z,996.56
2018-09-28T07:26:31.814Z,996.52
2018-09-28T07:27:31.813Z,996.53
2018-09-28T07:28:31.834Z,996.53
2018-09-28T07:29:31.824Z,996.55
2018-09-28T07:30:31.821Z,996.53
2018-09-28T07:31:31.826Z,996.49
2018-09-28T07:32:31.827Z,996.46
2018-09-28T07:33:31.829Z,996.46
2018-09-28T07:34:31.840Z,996.48
2018-09-28T07:35:31.836Z,996.46
2018-09-28T07:36:32.027Z,996.45
2018-09-28T07:37:31.843Z,996.44
2018-09-28T07:38:31.858Z,996.46
2018-09-28T07:39:31.856Z,996.47
2018-09-28T07:40:31.853Z,996.5
2018-09-28T07:41:31.856Z,996.51
2018-09-28T07:42:31.871Z,996.53
2018-09-28T07:43:31.866Z,996.53
2018-09-28T07:44:31.869Z,996.54
2018-09-28T07:45:31.871Z,996.53
2018-09-28T07:46:31.876Z,996.55
2018-09-28T07:47:31.881Z,996.57
2018-09-28T07:48:31.883Z,996.58
2018-09-28T07:49:31.890Z,996.59
2018-09-28T07:50:31.892Z,996.56
2018-09-28T07:51:31.894Z,996.59
2018-09-28T07:52:31.906Z,996.6
2018-09-28T07:53:31.908Z,996.57
2018-09-28T07:54:31.908Z,996.59
2018-09-28T07:55:31.915Z,996.61
2018-09-28T07:56:31.916Z,996.58
2018-09-28T07:57:31.921Z,996.6
2018-09-28T07:58:31.925Z,996.58
2018-09-28T07:59:31.940Z,996.59
2018-09-28T08:00:31.942Z,996.56
2018-09-28T08:01:31.943Z,996.56
2018-09-28T08:02:31.952Z,996.57
2018-09-28T08:03:31.951Z,996.56
2018-09-28T08:04:31.954Z,996.56
2018-09-28T08:05:31.972Z,996.54
2018-09-28T08:06:31.961Z,996.62
2018-09-28T08:07:31.977Z,996.56
2018-09-28T08:08:31.973Z,996.57
2018-09-28T08:09:31.977Z,996.55
2018-09-28T08:10:31.981Z,996.58
2018-09-28T08:11:31.984Z,996.59
2018-09-28T08:12:31.991Z,996.61
2018-09-28T08:13:32.019Z,996.58
2018-09-28T08:14:32.012Z,996.6
2018-09-28T08:15:32.015Z,996.61
2018-09-28T08:16:32.016Z,996.62
2018-09-28T08:17:32.016Z,996.6
2018-09-28T08:18:32.032Z,996.58
2018-09-28T08:19:32.020Z,996.55
2018-09-28T08:20:32.024Z,996.58
2018-09-28T08:21:32.026Z,996.51
2018-09-28T08:22:32.032Z,996.53
2018-09-28T08:23:32.158Z,996.54
2018-09-28T08:24:32.043Z,996.57
2018-09-28T08:25:32.039Z,996.56
2018-09-28T08:26:32.041Z,996.55
2018-09-28T08:27:32.043Z,996.49
2018-09-28T08:28:32.045Z,996.5
2018-09-28T08:29:32.056Z,996.49
2018-09-28T08:30:32.182Z,996.48
2018-09-28T08:31:32.050Z,996.53
2018-09-28T08:32:32.053Z,996.56
2018-09-28T08:33:32.069Z,996.56
2018-09-28T08:34:32.058Z,996.57
2018-09-28T08:35:32.079Z,996.54
2018-09-28T08:36:32.198Z,996.51
2018-09-28T08:37:32.063Z,996.48
2018-09-28T08:38:32.061Z,996.54
2018-09-28T08:39:32.065Z,996.51
2018-09-28T08:40:32.068Z,996.53
2018-09-28T08:41:32.067Z,996.5
2018-09-28T08:42:32.067Z,996.46
2018-09-28T08:43:32.130Z,996.48
2018-09-28T08:44:32.077Z,996.48
2018-09-28T08:45:32.077Z,996.52
2018-09-28T08:46:32.071Z,996.5
2018-09-28T08:47:32.076Z,996.54
2018-09-28T08:48:32.074Z,996.53
2018-09-28T08:49:32.082Z,996.52
2018-09-28T08:50:32.085Z,996.53
2018-09-28T08:51:32.082Z,996.53
2018-09-28T08:52:32.076Z,996.55
2018-09-28T08:53:32.082Z,996.59
2018-09-28T08:54:32.082Z,996.58
2018-09-28T08:55:32.085Z,996.56
2018-09-28T08:56:32.085Z,996.61
2018-09-28T08:57:32.086Z,996.58
2018-09-28T08:58:32.088Z,996.61
2018-09-28T08:59:32.087Z,996.58
2018-09-28T09:00:32.089Z,996.56
2018-09-28T09:01:32.100Z,996.49
2018-09-28T09:02:32.092Z,996.51
2018-09-28T09:03:32.093Z,996.51
2018-09-28T09:04:32.096Z,996.5
2018-09-28T09:05:32.097Z,996.57
2018-09-28T09:06:32.096Z,996.57
2018-09-28T09:07:32.096Z,996.52
2018-09-28T09:08:32.099Z,996.55
2018-09-28T09:09:32.099Z,996.53
2018-09-28T09:10:32.102Z,996.52
2018-09-28T09:11:32.102Z,996.54
2018-09-28T09:12:32.102Z,996.56
2018-09-28T09:13:32.117Z,996.59
2018-09-28T09:14:32.105Z,996.62
2018-09-28T09:15:32.108Z,996.64
2018-09-28T09:16:32.117Z,996.59
2018-09-28T09:17:32.107Z,996.65
2018-09-28T09:18:32.117Z,996.65
2018-09-28T09:19:32.111Z,996.65
2018-09-28T09:20:32.114Z,996.64
2018-09-28T09:21:32.113Z,996.66
2018-09-28T09:22:32.113Z,996.65
2018-09-28T09:23:32.114Z,996.66
2018-09-28T09:24:32.123Z,996.65
2018-09-28T09:25:32.127Z,996.65
2018-09-28T09:26:32.119Z,996.64
2018-09-28T09:27:32.133Z,996.67
2018-09-28T09:28:32.119Z,996.65
2018-09-28T09:29:32.124Z,996.63
2018-09-28T09:30:32.120Z,996.61
2018-09-28T09:31:32.122Z,996.57
2018-09-28T09:32:32.121Z,996.59
2018-09-28T09:33:32.124Z,996.54
2018-09-28T09:34:32.129Z,996.54
2018-09-28T09:35:32.125Z,996.55
2018-09-28T09:36:32.168Z,996.51
2018-09-28T09:37:32.128Z,996.53
2018-09-28T09:38:32.129Z,996.5
2018-09-28T09:39:32.132Z,996.48
2018-09-28T09:40:32.128Z,996.49
2018-09-28T09:41:32.133Z,996.44
2018-09-28T09:42:32.172Z,996.38
2018-09-28T09:43:32.136Z,996.37
2018-09-28T09:44:32.138Z,996.36
2018-09-28T09:45:32.142Z,996.37
2018-09-28T09:46:32.138Z,996.38
2018-09-28T09:47:32.138Z,996.3
2018-09-28T09:48:32.163Z,996.33
2018-09-28T09:49:32.144Z,996.36
2018-09-28T09:50:32.145Z,996.36
2018-09-28T09:51:32.149Z,996.33
2018-09-28T09:52:32.146Z,996.35
2018-09-28T09:53:32.152Z,996.3
2018-09-28T09:54:32.157Z,996.34
2018-09-28T09:55:32.153Z,996.32
2018-09-28T09:56:32.157Z,996.33
2018-09-28T09:57:32.160Z,996.35
2018-09-28T09:58:32.160Z,996.36
2018-09-28T09:59:32.155Z,996.35
2018-09-28T10:00:32.226Z,996.35
2018-09-28T10:01:32.239Z,996.3
2018-09-28T10:02:32.158Z,996.3
2018-09-28T10:03:32.179Z,996.29
2018-09-28T10:04:32.162Z,996.3
2018-09-28T10:05:32.163Z,996.22
2018-09-28T10:06:32.163Z,996.19
2018-09-28T10:07:32.173Z,996.18
2018-09-28T10:08:32.168Z,996.16
2018-09-28T10:09:32.182Z,996.17
2018-09-28T10:10:32.172Z,996.19
2018-09-28T10:11:32.171Z,996.15
2018-09-28T10:12:32.327Z,996.17
2018-09-28T10:13:32.180Z,996.15
2018-09-28T10:14:32.185Z,996.2
2018-09-28T10:15:32.184Z,996.17
2018-09-28T10:16:32.184Z,996.15
2018-09-28T10:17:32.185Z,996.18
2018-09-28T10:18:32.185Z,996.18
2018-09-28T10:19:32.204Z,996.19
2018-09-28T10:20:32.188Z,996.2
2018-09-28T10:21:32.187Z,996.14
2018-09-28T10:22:32.187Z,996.15
2018-09-28T10:23:32.215Z,996.16
2018-09-28T10:24:32.187Z,996.15
2018-09-28T10:25:32.190Z,996.14
2018-09-28T10:26:32.198Z,996.09
2018-09-28T10:27:32.341Z,996.06
2018-09-28T10:28:32.248Z,996.1
2018-09-28T10:29:32.202Z,996.06
2018-09-28T10:30:32.199Z,996.04
2018-09-28T10:31:32.200Z,996.04
2018-09-28T10:32:32.203Z,996.01
2018-09-28T10:33:32.211Z,995.99
2018-09-28T10:34:32.246Z,995.98
2018-09-28T10:35:32.208Z,995.95
2018-09-28T10:36:32.209Z,995.96
2018-09-28T10:37:32.214Z,995.96
2018-09-28T10:38:32.215Z,995.96
2018-09-28T10:39:32.246Z,995.97
2018-09-28T10:40:32.333Z,995.95
2018-09-28T10:41:32.219Z,995.92
2018-09-28T10:42:32.216Z,995.91
2018-09-28T10:43:32.219Z,995.88
2018-09-28T10:44:32.223Z,995.86
2018-09-28T10:45:32.278Z,995.82
2018-09-28T10:46:32.268Z,995.85
2018-09-28T10:47:32.236Z,995.83
2018-09-28T10:48:32.231Z,995.8
2018-09-28T10:49:32.244Z,995.8
2018-09-28T10:50:32.238Z,995.76
2018-09-28T10:51:32.251Z,995.77
2018-09-28T10:52:32.439Z,995.76
2018-09-28T10:53:32.242Z,995.73
2018-09-28T10:54:32.241Z,995.66
2018-09-28T10:55:32.240Z,995.69
2018-09-28T10:56:32.246Z,995.66
2018-09-28T10:57:32.246Z,995.65
2018-09-28T10:58:32.454Z,995.69
2018-09-28T10:59:32.249Z,995.69
2018-09-28T11:00:32.310Z,995.64
2018-09-28T11:01:32.266Z,995.66
2018-09-28T11:02:32.255Z,995.65
2018-09-28T11:03:32.314Z,995.62
2018-09-28T11:04:32.308Z,995.63
2018-09-28T11:05:32.259Z,995.64
2018-09-28T11:06:32.266Z,995.66
2018-09-28T11:07:32.262Z,995.7
2018-09-28T11:08:32.405Z,995.65
2018-09-28T11:09:32.307Z,995.6
2018-09-28T11:10:32.273Z,995.66
2018-09-28T11:11:32.275Z,995.68
2018-09-28T11:12:32.271Z,995.63
2018-09-28T11:13:32.274Z,995.64
2018-09-28T11:14:32.276Z,995.63
2018-09-28T11:15:32.329Z,995.65
2018-09-28T11:16:32.280Z,995.61
2018-09-28T11:17:32.281Z,995.61
2018-09-28T11:18:32.281Z,995.56
2018-09-28T11:19:32.298Z,995.55
2018-09-28T11:20:32.295Z,995.56
2018-09-28T11:21:32.320Z,995.56
2018-09-28T11:22:32.291Z,995.54
2018-09-28T11:23:32.300Z,995.5
2018-09-28T11:24:32.290Z,995.5
2018-09-28T11:25:32.296Z,995.49
2018-09-28T11:26:32.366Z,995.44
2018-09-28T11:27:32.335Z,995.45
2018-09-28T11:28:32.305Z,995.42
2018-09-28T11:29:32.312Z,995.43
2018-09-28T11:30:32.303Z,995.35
2018-09-28T11:31:32.306Z,995.4
2018-09-28T11:32:32.309Z,995.38
2018-09-28T11:33:32.353Z,995.34
2018-09-28T11:34:33.915Z,995.34
2018-09-28T11:35:32.312Z,995.33
2018-09-28T11:36:32.315Z,995.35
2018-09-28T11:37:32.351Z,995.32
2018-09-28T11:38:32.330Z,995.33
2018-09-28T11:39:32.356Z,995.31
2018-09-28T11:40:32.324Z,995.33
2018-09-28T11:41:32.322Z,995.27
2018-09-28T11:42:32.334Z,995.25
2018-09-28T11:43:32.330Z,995.38
2018-09-28T11:44:32.333Z,995.33
2018-09-28T11:45:32.360Z,995.39
2018-09-28T11:46:32.338Z,995.37
2018-09-28T11:47:32.347Z,995.36
2018-09-28T11:48:32.337Z,995.33
2018-09-28T11:49:32.341Z,995.3
2018-09-28T11:50:32.341Z,995.29
2018-09-28T11:51:32.396Z,995.23
2018-09-28T11:52:32.368Z,995.29
2018-09-28T11:53:32.347Z,995.26
2018-09-28T11:54:32.348Z,995.26
2018-09-28T11:55:32.354Z,995.21
2018-09-28T11:56:32.355Z,995.26
2018-09-28T11:57:32.370Z,995.22
2018-09-28T11:58:32.358Z,995.22
2018-09-28T11:59:32.359Z,995.2
2018-09-28T12:00:32.365Z,995.2
2018-09-28T12:01:32.364Z,995.23
2018-09-28T12:02:32.376Z,995.21
2018-09-28T12:03:32.431Z,995.21
2018-09-28T12:04:32.371Z,995.21
2018-09-28T12:05:32.371Z,995.21
2018-09-28T12:06:32.524Z,995.2
2018-09-28T12:07:32.384Z,995.17
2018-09-28T12:08:32.381Z,995.18
2018-09-28T12:09:32.383Z,995.18
2018-09-28T12:10:32.382Z,995.2
2018-09-28T12:11:32.387Z,995.2
2018-09-28T12:12:32.410Z,995.15
2018-09-28T12:13:32.501Z,995.21
2018-09-28T12:14:32.392Z,995.2
2018-09-28T12:15:32.443Z,995.16
2018-09-28T12:16:32.398Z,995.19
2018-09-28T12:17:32.395Z,995.16
2018-09-28T12:18:32.409Z,995.15
2018-09-28T12:19:32.420Z,995.11
2018-09-28T12:20:32.404Z,995.04
2018-09-28T12:21:32.409Z,994.97
2018-09-28T12:22:32.406Z,994.99
2018-09-28T12:23:32.412Z,994.96
2018-09-28T12:24:32.464Z,994.96
2018-09-28T12:25:32.413Z,994.91
2018-09-28T12:26:32.416Z,994.91
2018-09-28T12:27:32.452Z,994.92
2018-09-28T12:28:32.420Z,994.86
2018-09-28T12:29:32.426Z,994.88
2018-09-28T12:30:32.447Z,994.85
2018-09-28T12:31:32.442Z,994.84